sensor_id;sensor_type;location;lat;lon;timestamp;pressure;altitude;pressure_sealevel;temperature;humidity
33286;BME280;19656;50.096;20.014;2022-08-26T00:04:17;98887.98;;;22.71;56.80
33286;BME280;19656;50.096;20.014;2022-08-26T00:09:20;98887.43;;;22.65;56.90
33286;BME280;19656;50.096;20.014;2022-08-26T00:14:26;98889.69;;;22.61;57.16
33286;BME280;19656;50.096;20.014;2022-08-26T00:19:33;98887.33;;;22.55;57.27
33286;BME280;19656;50.096;20.014;2022-08-26T00:24:36;98885.25;;;22.49;57.48
33286;BME280;19656;50.096;20.014;2022-08-26T00:29:39;98881.67;;;22.42;57.56
33286;BME280;19656;50.096;20.014;2022-08-26T00:34:42;98884.24;;;22.34;57.71
33286;BME280;19656;50.096;20.014;2022-08-26T00:39:45;98886.88;;;22.25;57.91
33286;BME280;19656;50.096;20.014;2022-08-26T00:44:49;98888.55;;;22.15;58.07
33286;BME280;19656;50.096;20.014;2022-08-26T00:49:53;98888.17;;;22.10;58.23
33286;BME280;19656;50.096;20.014;2022-08-26T00:55:16;98883.54;;;22.07;58.27
33286;BME280;19656;50.096;20.014;2022-08-26T01:00:26;98887.80;;;22.00;58.53
33286;BME280;19656;50.096;20.014;2022-08-26T01:05:29;98892.55;;;21.94;58.54
33286;BME280;19656;50.096;20.014;2022-08-26T01:10:32;98891.02;;;21.88;58.74
33286;BME280;19656;50.096;20.014;2022-08-26T01:15:46;98896.70;;;21.83;58.83
33286;BME280;19656;50.096;20.014;2022-08-26T01:21:21;98895.57;;;21.77;58.94
33286;BME280;19656;50.096;20.014;2022-08-26T01:26:36;98893.91;;;21.69;59.02
33286;BME280;19656;50.096;20.014;2022-08-26T01:31:44;98891.96;;;21.64;59.13
33286;BME280;19656;50.096;20.014;2022-08-26T01:36:51;98888.33;;;21.62;59.26
33286;BME280;19656;50.096;20.014;2022-08-26T01:41:57;98887.96;;;21.62;59.37
33286;BME280;19656;50.096;20.014;2022-08-26T01:47:05;98888.49;;;21.61;59.38
33286;BME280;19656;50.096;20.014;2022-08-26T01:52:11;98884.98;;;21.58;59.46
33286;BME280;19656;50.096;20.014;2022-08-26T01:57:16;98887.40;;;21.54;59.49
33286;BME280;19656;50.096;20.014;2022-08-26T02:02:21;98886.80;;;21.46;59.42
33286;BME280;19656;50.096;20.014;2022-08-26T02:07:26;98883.98;;;21.34;59.46
33286;BME280;19656;50.096;20.014;2022-08-26T02:12:30;98886.17;;;21.25;59.61
33286;BME280;19656;50.096;20.014;2022-08-26T02:17:41;98889.48;;;21.19;59.65
33286;BME280;19656;50.096;20.014;2022-08-26T02:22:46;98891.27;;;21.15;59.63
33286;BME280;19656;50.096;20.014;2022-08-26T02:27:49;98890.48;;;21.16;59.85
33286;BME280;19656;50.096;20.014;2022-08-26T02:32:52;98890.38;;;21.12;59.71
33286;BME280;19656;50.096;20.014;2022-08-26T02:37:58;98884.63;;;21.01;59.79
33286;BME280;19656;50.096;20.014;2022-08-26T02:43:02;98882.83;;;20.95;59.91
33286;BME280;19656;50.096;20.014;2022-08-26T02:48:16;98882.34;;;20.91;59.97
33286;BME280;19656;50.096;20.014;2022-08-26T02:53:20;98876.01;;;20.83;60.00
33286;BME280;19656;50.096;20.014;2022-08-26T02:58:26;98875.16;;;20.72;60.05
33286;BME280;19656;50.096;20.014;2022-08-26T03:03:29;98874.11;;;20.65;60.23
33286;BME280;19656;50.096;20.014;2022-08-26T03:08:34;98868.96;;;20.60;60.22
33286;BME280;19656;50.096;20.014;2022-08-26T03:13:38;98872.46;;;20.59;60.35
33286;BME280;19656;50.096;20.014;2022-08-26T03:18:41;98872.98;;;20.59;60.57
33286;BME280;19656;50.096;20.014;2022-08-26T03:23:48;98866.09;;;20.61;60.70
33286;BME280;19656;50.096;20.014;2022-08-26T03:28:51;98872.20;;;20.60;60.53
33286;BME280;19656;50.096;20.014;2022-08-26T03:34:14;98868.16;;;20.53;60.49
33286;BME280;19656;50.096;20.014;2022-08-26T03:39:17;98869.40;;;20.43;60.61
33286;BME280;19656;50.096;20.014;2022-08-26T03:44:20;98869.94;;;20.36;60.70
33286;BME280;19656;50.096;20.014;2022-08-26T03:49:23;98867.85;;;20.32;60.64
33286;BME280;19656;50.096;20.014;2022-08-26T03:54:30;98868.45;;;20.28;60.67
33286;BME280;19656;50.096;20.014;2022-08-26T03:59:33;98871.19;;;20.29;60.91
33286;BME280;19656;50.096;20.014;2022-08-26T04:04:36;98874.88;;;20.30;60.97
33286;BME280;19656;50.096;20.014;2022-08-26T04:09:39;98873.67;;;20.31;60.91
33286;BME280;19656;50.096;20.014;2022-08-26T04:14:42;98876.17;;;20.32;60.93
33286;BME280;19656;50.096;20.014;2022-08-26T04:19:46;98876.08;;;20.29;60.91
33286;BME280;19656;50.096;20.014;2022-08-26T04:24:49;98879.17;;;20.27;60.96
33286;BME280;19656;50.096;20.014;2022-08-26T04:29:52;98883.23;;;20.26;61.05
33286;BME280;19656;50.096;20.014;2022-08-26T04:34:57;98884.08;;;20.30;61.03
33286;BME280;19656;50.096;20.014;2022-08-26T04:40:03;98879.73;;;20.36;61.10
33286;BME280;19656;50.096;20.014;2022-08-26T04:45:07;98873.88;;;20.40;61.15
33286;BME280;19656;50.096;20.014;2022-08-26T04:50:12;98867.03;;;20.43;61.16
33286;BME280;19656;50.096;20.014;2022-08-26T04:55:21;98863.39;;;20.47;60.93
33286;BME280;19656;50.096;20.014;2022-08-26T05:00:43;98864.30;;;20.54;60.76
33286;BME280;19656;50.096;20.014;2022-08-26T05:05:47;98862.27;;;20.58;60.56
33286;BME280;19656;50.096;20.014;2022-08-26T05:10:53;98868.27;;;20.64;60.45
33286;BME280;19656;50.096;20.014;2022-08-26T05:16:04;98866.76;;;20.68;60.37
33286;BME280;19656;50.096;20.014;2022-08-26T05:21:12;98866.77;;;20.70;60.27
33286;BME280;19656;50.096;20.014;2022-08-26T05:26:18;98872.62;;;20.74;60.30
33286;BME280;19656;50.096;20.014;2022-08-26T05:31:28;98876.11;;;20.85;60.21
33286;BME280;19656;50.096;20.014;2022-08-26T05:36:34;98875.88;;;20.97;60.07
33286;BME280;19656;50.096;20.014;2022-08-26T05:41:40;98873.36;;;21.09;59.94
33286;BME280;19656;50.096;20.014;2022-08-26T05:46:44;98872.63;;;21.19;59.73
33286;BME280;19656;50.096;20.014;2022-08-26T05:51:47;98871.39;;;21.27;59.57
33286;BME280;19656;50.096;20.014;2022-08-26T05:56:52;98869.65;;;21.35;59.46
33286;BME280;19656;50.096;20.014;2022-08-26T06:01:55;98866.55;;;21.42;59.41
33286;BME280;19656;50.096;20.014;2022-08-26T06:06:58;98860.91;;;21.49;59.35
33286;BME280;19656;50.096;20.014;2022-08-26T06:12:01;98865.86;;;21.60;59.24
33286;BME280;19656;50.096;20.014;2022-08-26T06:17:05;98861.27;;;21.67;58.85
33286;BME280;19656;50.096;20.014;2022-08-26T06:22:11;98867.29;;;21.73;58.55
33286;BME280;19656;50.096;20.014;2022-08-26T06:27:35;98863.46;;;21.81;58.40
33286;BME280;19656;50.096;20.014;2022-08-26T06:32:38;98866.47;;;21.86;58.17
33286;BME280;19656;50.096;20.014;2022-08-26T06:37:41;98863.11;;;21.91;58.10
33286;BME280;19656;50.096;20.014;2022-08-26T06:42:45;98863.23;;;21.96;57.95
33286;BME280;19656;50.096;20.014;2022-08-26T06:47:48;98863.06;;;21.99;57.91
33286;BME280;19656;50.096;20.014;2022-08-26T06:52:53;98862.69;;;22.01;57.88
33286;BME280;19656;50.096;20.014;2022-08-26T06:57:58;98865.17;;;22.06;57.99
33286;BME280;19656;50.096;20.014;2022-08-26T07:03:03;98865.45;;;22.13;58.05
33286;BME280;19656;50.096;20.014;2022-08-26T07:08:06;98869.17;;;22.21;57.93
33286;BME280;19656;50.096;20.014;2022-08-26T07:13:10;98867.19;;;22.27;57.81
33286;BME280;19656;50.096;20.014;2022-08-26T07:18:14;98861.38;;;22.34;57.79
33286;BME280;19656;50.096;20.014;2022-08-26T07:23:17;98862.11;;;22.45;57.92
33286;BME280;19656;50.096;20.014;2022-08-26T07:28:20;98856.48;;;22.54;57.96
33286;BME280;19656;50.096;20.014;2022-08-26T07:33:24;98852.84;;;22.64;57.81
33286;BME280;19656;50.096;20.014;2022-08-26T07:38:27;98852.52;;;22.75;57.82
33286;BME280;19656;50.096;20.014;2022-08-26T07:43:35;98850.96;;;22.86;57.85
33286;BME280;19656;50.096;20.014;2022-08-26T07:48:40;98844.46;;;23.00;57.67
33286;BME280;19656;50.096;20.014;2022-08-26T07:53:48;98846.33;;;23.15;57.58
33286;BME280;19656;50.096;20.014;2022-08-26T07:58:54;98845.93;;;23.29;57.42
33286;BME280;19656;50.096;20.014;2022-08-26T08:03:57;98846.27;;;23.42;57.08
33286;BME280;19656;50.096;20.014;2022-08-26T08:09:05;98845.98;;;23.56;57.06
33286;BME280;19656;50.096;20.014;2022-08-26T08:14:09;98841.86;;;23.71;57.09
33286;BME280;19656;50.096;20.014;2022-08-26T08:19:14;98832.34;;;23.84;56.82
33286;BME280;19656;50.096;20.014;2022-08-26T08:24:16;98832.38;;;23.98;56.73
33286;BME280;19656;50.096;20.014;2022-08-26T08:29:20;98831.16;;;24.10;56.55
33286;BME280;19656;50.096;20.014;2022-08-26T08:34:25;98825.56;;;24.22;56.34
33286;BME280;19656;50.096;20.014;2022-08-26T08:39:30;98823.27;;;24.32;55.97
33286;BME280;19656;50.096;20.014;2022-08-26T08:44:36;98822.41;;;24.43;56.06
33286;BME280;19656;50.096;20.014;2022-08-26T08:49:43;98820.53;;;24.56;56.20
33286;BME280;19656;50.096;20.014;2022-08-26T08:54:46;98816.41;;;24.69;56.11
33286;BME280;19656;50.096;20.014;2022-08-26T09:00:17;98815.86;;;24.80;56.05
33286;BME280;19656;50.096;20.014;2022-08-26T09:05:37;98808.80;;;24.93;55.96
33286;BME280;19656;50.096;20.014;2022-08-26T09:10:53;98808.25;;;25.08;55.85
33286;BME280;19656;50.096;20.014;2022-08-26T09:16:08;98803.06;;;25.22;55.55
33286;BME280;19656;50.096;20.014;2022-08-26T09:21:14;98801.73;;;25.36;55.34
33286;BME280;19656;50.096;20.014;2022-08-26T09:26:28;98797.63;;;25.51;55.11
33286;BME280;19656;50.096;20.014;2022-08-26T09:31:34;98793.99;;;25.71;54.77
33286;BME280;19656;50.096;20.014;2022-08-26T09:36:41;98787.87;;;25.90;54.41
33286;BME280;19656;50.096;20.014;2022-08-26T09:42:00;98783.68;;;26.11;54.29
33286;BME280;19656;50.096;20.014;2022-08-26T09:47:05;98781.81;;;26.32;54.01
33286;BME280;19656;50.096;20.014;2022-08-26T09:52:10;98778.67;;;26.55;53.73
33286;BME280;19656;50.096;20.014;2022-08-26T09:57:22;98772.52;;;26.76;53.56
33286;BME280;19656;50.096;20.014;2022-08-26T10:07:45;98765.02;;;27.21;52.79
33286;BME280;19656;50.096;20.014;2022-08-26T10:13:00;98759.73;;;27.49;52.75
33286;BME280;19656;50.096;20.014;2022-08-26T10:18:21;98759.59;;;27.78;52.28
33286;BME280;19656;50.096;20.014;2022-08-26T10:23:31;98755.84;;;28.05;51.99
33286;BME280;19656;50.096;20.014;2022-08-26T10:33:51;98750.55;;;28.54;51.42
33286;BME280;19656;50.096;20.014;2022-08-26T10:39:03;98751.05;;;28.79;50.87
33286;BME280;19656;50.096;20.014;2022-08-26T10:44:11;98744.05;;;29.04;50.78
33286;BME280;19656;50.096;20.014;2022-08-26T10:49:16;98733.92;;;29.22;49.82
33286;BME280;19656;50.096;20.014;2022-08-26T10:59:43;98724.07;;;29.46;49.10
33286;BME280;19656;50.096;20.014;2022-08-26T11:04:58;98723.52;;;29.52;48.38
33286;BME280;19656;50.096;20.014;2022-08-26T11:10:06;98718.17;;;29.58;47.71
33286;BME280;19656;50.096;20.014;2022-08-26T11:25:30;98714.89;;;30.10;46.54
33286;BME280;19656;50.096;20.014;2022-08-26T11:30:39;98710.55;;;30.26;45.83
33286;BME280;19656;50.096;20.014;2022-08-26T11:35:47;98706.49;;;30.42;45.41
33286;BME280;19656;50.096;20.014;2022-08-26T11:41:04;98699.30;;;30.58;44.76
33286;BME280;19656;50.096;20.014;2022-08-26T11:46:10;98690.09;;;30.73;44.22
33286;BME280;19656;50.096;20.014;2022-08-26T11:51:22;98686.72;;;30.90;43.89
33286;BME280;19656;50.096;20.014;2022-08-26T11:56:29;98683.58;;;31.07;42.98
33286;BME280;19656;50.096;20.014;2022-08-26T12:01:37;98678.85;;;31.22;42.43
33286;BME280;19656;50.096;20.014;2022-08-26T12:06:47;98671.73;;;31.43;42.06
33286;BME280;19656;50.096;20.014;2022-08-26T12:17:32;98664.93;;;31.74;40.51
33286;BME280;19656;50.096;20.014;2022-08-26T12:22:35;98653.68;;;31.85;39.89
33286;BME280;19656;50.096;20.014;2022-08-26T12:27:42;98648.02;;;31.97;39.34
33286;BME280;19656;50.096;20.014;2022-08-26T12:32:51;98650.44;;;32.02;38.72
33286;BME280;19656;50.096;20.014;2022-08-26T12:38:00;98650.59;;;32.12;38.36
33286;BME280;19656;50.096;20.014;2022-08-26T12:43:06;98643.11;;;32.27;38.17
33286;BME280;19656;50.096;20.014;2022-08-26T12:48:25;98640.45;;;32.45;37.94
33286;BME280;19656;50.096;20.014;2022-08-26T12:53:31;98630.75;;;32.63;37.64
33286;BME280;19656;50.096;20.014;2022-08-26T12:58:38;98625.86;;;32.80;37.61
33286;BME280;19656;50.096;20.014;2022-08-26T13:03:43;98622.27;;;32.98;37.44
33286;BME280;19656;50.096;20.014;2022-08-26T13:19:12;98613.87;;;33.28;36.27
33286;BME280;19656;50.096;20.014;2022-08-26T13:24:20;98609.14;;;33.33;35.41
33286;BME280;19656;50.096;20.014;2022-08-26T13:29:23;98604.77;;;33.35;35.12
33286;BME280;19656;50.096;20.014;2022-08-26T13:34:27;98601.67;;;33.38;34.83
33286;BME280;19656;50.096;20.014;2022-08-26T13:39:31;98597.89;;;33.33;34.34
33286;BME280;19656;50.096;20.014;2022-08-26T13:44:35;98598.90;;;33.34;33.98
33286;BME280;19656;50.096;20.014;2022-08-26T13:49:41;98596.34;;;33.41;34.20
33286;BME280;19656;50.096;20.014;2022-08-26T13:54:45;98593.48;;;33.48;33.74
33286;BME280;19656;50.096;20.014;2022-08-26T13:59:48;98591.50;;;33.45;33.10
33286;BME280;19656;50.096;20.014;2022-08-26T14:04:51;98592.36;;;33.47;32.75
33286;BME280;19656;50.096;20.014;2022-08-26T14:09:55;98582.48;;;33.44;32.64
33286;BME280;19656;50.096;20.014;2022-08-26T14:14:58;98579.61;;;33.39;32.83
33286;BME280;19656;50.096;20.014;2022-08-26T14:20:03;98581.30;;;33.34;33.00
33286;BME280;19656;50.096;20.014;2022-08-26T14:25:07;98574.43;;;33.32;33.41
33286;BME280;19656;50.096;20.014;2022-08-26T14:30:13;98573.46;;;33.23;33.03
33286;BME280;19656;50.096;20.014;2022-08-26T14:35:20;98566.94;;;33.01;32.72
33286;BME280;19656;50.096;20.014;2022-08-26T14:40:27;98576.46;;;32.60;32.39
33286;BME280;19656;50.096;20.014;2022-08-26T14:45:34;98573.82;;;32.24;32.66
33286;BME280;19656;50.096;20.014;2022-08-26T14:50:39;98574.34;;;31.92;32.62
33286;BME280;19656;50.096;20.014;2022-08-26T14:55:42;98575.46;;;31.72;33.22
33286;BME280;19656;50.096;20.014;2022-08-26T15:00:45;98576.17;;;31.56;33.48
33286;BME280;19656;50.096;20.014;2022-08-26T15:05:48;98577.52;;;31.40;33.67
33286;BME280;19656;50.096;20.014;2022-08-26T15:10:51;98577.84;;;31.23;33.44
33286;BME280;19656;50.096;20.014;2022-08-26T15:15:54;98582.08;;;31.09;33.72
33286;BME280;19656;50.096;20.014;2022-08-26T15:20:57;98577.25;;;30.96;33.65
33286;BME280;19656;50.096;20.014;2022-08-26T15:26:01;98579.02;;;30.86;33.83
33286;BME280;19656;50.096;20.014;2022-08-26T15:31:05;98577.31;;;30.80;34.11
33286;BME280;19656;50.096;20.014;2022-08-26T15:36:09;98573.38;;;30.73;33.81
33286;BME280;19656;50.096;20.014;2022-08-26T15:41:13;98572.44;;;30.64;33.86
33286;BME280;19656;50.096;20.014;2022-08-26T15:46:17;98573.65;;;30.58;34.00
33286;BME280;19656;50.096;20.014;2022-08-26T15:51:24;98572.78;;;30.52;34.10
33286;BME280;19656;50.096;20.014;2022-08-26T15:56:31;98568.48;;;30.41;34.08
33286;BME280;19656;50.096;20.014;2022-08-26T16:01:36;98567.85;;;30.27;34.50
33286;BME280;19656;50.096;20.014;2022-08-26T16:06:40;98566.33;;;30.18;34.76
33286;BME280;19656;50.096;20.014;2022-08-26T16:11:43;98562.77;;;30.07;34.42
33286;BME280;19656;50.096;20.014;2022-08-26T16:16:47;98562.23;;;29.95;34.70
33286;BME280;19656;50.096;20.014;2022-08-26T16:21:50;98566.92;;;29.85;34.81
33286;BME280;19656;50.096;20.014;2022-08-26T16:26:53;98564.49;;;29.77;35.08
33286;BME280;19656;50.096;20.014;2022-08-26T16:31:56;98561.15;;;29.68;35.16
33286;BME280;19656;50.096;20.014;2022-08-26T16:36:59;98557.11;;;29.58;35.65
33286;BME280;19656;50.096;20.014;2022-08-26T16:42:03;98554.65;;;29.49;35.61
33286;BME280;19656;50.096;20.014;2022-08-26T16:47:06;98554.50;;;29.39;35.79
33286;BME280;19656;50.096;20.014;2022-08-26T16:52:10;98553.89;;;29.27;35.84
33286;BME280;19656;50.096;20.014;2022-08-26T16:57:15;98549.94;;;29.14;35.96
33286;BME280;19656;50.096;20.014;2022-08-26T17:02:18;98550.10;;;29.02;36.33
33286;BME280;19656;50.096;20.014;2022-08-26T17:07:21;98549.86;;;28.89;36.45
33286;BME280;19656;50.096;20.014;2022-08-26T17:12:25;98545.84;;;28.76;36.60
33286;BME280;19656;50.096;20.014;2022-08-26T17:17:30;98545.45;;;28.64;36.60
33286;BME280;19656;50.096;20.014;2022-08-26T17:22:33;98544.88;;;28.51;36.54
33286;BME280;19656;50.096;20.014;2022-08-26T17:27:36;98539.52;;;28.42;36.69
33286;BME280;19656;50.096;20.014;2022-08-26T17:32:40;98540.48;;;28.32;36.76
33286;BME280;19656;50.096;20.014;2022-08-26T17:37:43;98544.23;;;28.20;36.87
33286;BME280;19656;50.096;20.014;2022-08-26T17:42:48;98544.11;;;28.05;36.97
33286;BME280;19656;50.096;20.014;2022-08-26T17:47:55;98545.64;;;27.91;37.05
33286;BME280;19656;50.096;20.014;2022-08-26T17:52:58;98544.02;;;27.75;37.29
33286;BME280;19656;50.096;20.014;2022-08-26T17:58:01;98541.54;;;27.61;37.52
33286;BME280;19656;50.096;20.014;2022-08-26T18:03:08;98545.02;;;27.52;37.76
33286;BME280;19656;50.096;20.014;2022-08-26T18:08:12;98548.55;;;27.42;37.90
33286;BME280;19656;50.096;20.014;2022-08-26T18:13:15;98555.11;;;27.31;38.21
33286;BME280;19656;50.096;20.014;2022-08-26T18:18:18;98556.56;;;27.18;38.48
33286;BME280;19656;50.096;20.014;2022-08-26T18:23:21;98555.82;;;27.02;39.06
33286;BME280;19656;50.096;20.014;2022-08-26T18:28:24;98559.02;;;26.87;39.47
33286;BME280;19656;50.096;20.014;2022-08-26T18:33:27;98561.17;;;26.72;39.71
33286;BME280;19656;50.096;20.014;2022-08-26T18:38:30;98561.05;;;26.61;39.61
33286;BME280;19656;50.096;20.014;2022-08-26T18:43:34;98559.41;;;26.49;39.90
33286;BME280;19656;50.096;20.014;2022-08-26T18:48:39;98560.52;;;26.38;40.14
33286;BME280;19656;50.096;20.014;2022-08-26T18:53:42;98566.84;;;26.27;40.45
33286;BME280;19656;50.096;20.014;2022-08-26T18:58:45;98569.70;;;26.13;40.70
33286;BME280;19656;50.096;20.014;2022-08-26T19:03:48;98565.55;;;25.98;41.24
33286;BME280;19656;50.096;20.014;2022-08-26T19:08:53;98562.37;;;25.84;41.37
33286;BME280;19656;50.096;20.014;2022-08-26T19:13:57;98564.82;;;25.72;41.43
33286;BME280;19656;50.096;20.014;2022-08-26T19:19:01;98558.80;;;25.61;41.58
33286;BME280;19656;50.096;20.014;2022-08-26T19:24:07;98555.51;;;25.51;41.67
33286;BME280;19656;50.096;20.014;2022-08-26T19:29:14;98557.73;;;25.40;42.20
33286;BME280;19656;50.096;20.014;2022-08-26T19:34:22;98555.27;;;25.28;42.35
33286;BME280;19656;50.096;20.014;2022-08-26T19:39:26;98557.88;;;25.16;42.60
33286;BME280;19656;50.096;20.014;2022-08-26T19:44:29;98557.46;;;25.07;42.71
33286;BME280;19656;50.096;20.014;2022-08-26T19:49:52;98558.22;;;24.95;42.74
33286;BME280;19656;50.096;20.014;2022-08-26T19:54:57;98556.39;;;24.86;42.70
33286;BME280;19656;50.096;20.014;2022-08-26T20:00:01;98562.61;;;24.76;42.88
33286;BME280;19656;50.096;20.014;2022-08-26T20:05:07;98563.95;;;24.66;43.20
33286;BME280;19656;50.096;20.014;2022-08-26T20:10:11;98567.60;;;24.56;43.62
33286;BME280;19656;50.096;20.014;2022-08-26T20:15:15;98570.88;;;24.45;43.92
33286;BME280;19656;50.096;20.014;2022-08-26T20:20:18;98568.39;;;24.36;43.95
33286;BME280;19656;50.096;20.014;2022-08-26T20:25:40;98571.83;;;24.27;44.42
33286;BME280;19656;50.096;20.014;2022-08-26T20:30:44;98577.59;;;24.19;44.42
33286;BME280;19656;50.096;20.014;2022-08-26T20:35:47;98585.04;;;24.12;44.62
33286;BME280;19656;50.096;20.014;2022-08-26T20:40:50;98588.20;;;24.03;44.76
33286;BME280;19656;50.096;20.014;2022-08-26T20:45:58;98591.69;;;23.96;45.01
33286;BME280;19656;50.096;20.014;2022-08-26T20:51:02;98596.09;;;23.89;45.15
33286;BME280;19656;50.096;20.014;2022-08-26T20:56:07;98600.94;;;23.81;45.53
33286;BME280;19656;50.096;20.014;2022-08-26T21:01:20;98604.63;;;23.72;46.10
33286;BME280;19656;50.096;20.014;2022-08-26T21:06:23;98606.06;;;23.62;46.56
33286;BME280;19656;50.096;20.014;2022-08-26T21:11:26;98607.07;;;23.52;47.02
33286;BME280;19656;50.096;20.014;2022-08-26T21:16:30;98604.64;;;23.41;47.36
33286;BME280;19656;50.096;20.014;2022-08-26T21:21:34;98607.64;;;23.28;47.63
33286;BME280;19656;50.096;20.014;2022-08-26T21:26:37;98605.65;;;23.18;47.99
33286;BME280;19656;50.096;20.014;2022-08-26T21:31:41;98604.48;;;23.08;48.36
33286;BME280;19656;50.096;20.014;2022-08-26T21:36:48;98607.83;;;22.99;48.67
33286;BME280;19656;50.096;20.014;2022-08-26T21:41:51;98611.17;;;22.92;48.90
33286;BME280;19656;50.096;20.014;2022-08-26T21:46:54;98613.17;;;22.82;49.06
33286;BME280;19656;50.096;20.014;2022-08-26T21:51:57;98615.73;;;22.73;49.26
33286;BME280;19656;50.096;20.014;2022-08-26T21:57:00;98612.80;;;22.60;49.35
33286;BME280;19656;50.096;20.014;2022-08-26T22:02:04;98617.14;;;22.51;49.45
33286;BME280;19656;50.096;20.014;2022-08-26T22:07:08;98610.01;;;22.45;49.66
33286;BME280;19656;50.096;20.014;2022-08-26T22:12:12;98611.10;;;22.39;49.81
33286;BME280;19656;50.096;20.014;2022-08-26T22:17:15;98614.39;;;22.34;50.03
33286;BME280;19656;50.096;20.014;2022-08-26T22:22:19;98613.08;;;22.28;50.14
33286;BME280;19656;50.096;20.014;2022-08-26T22:27:22;98615.63;;;22.24;50.31
33286;BME280;19656;50.096;20.014;2022-08-26T22:32:25;98611.25;;;22.18;50.54
33286;BME280;19656;50.096;20.014;2022-08-26T22:37:28;98612.02;;;22.11;50.66
33286;BME280;19656;50.096;20.014;2022-08-26T22:42:31;98610.30;;;22.04;50.76
33286;BME280;19656;50.096;20.014;2022-08-26T22:47:36;98606.92;;;21.99;50.88
33286;BME280;19656;50.096;20.014;2022-08-26T22:52:39;98603.72;;;21.94;50.93
33286;BME280;19656;50.096;20.014;2022-08-26T22:57:42;98603.66;;;21.88;51.16
33286;BME280;19656;50.096;20.014;2022-08-26T23:02:46;98604.35;;;21.84;51.22
33286;BME280;19656;50.096;20.014;2022-08-26T23:07:49;98600.19;;;21.78;51.41
33286;BME280;19656;50.096;20.014;2022-08-26T23:12:52;98595.23;;;21.72;51.65
33286;BME280;19656;50.096;20.014;2022-08-26T23:17:56;98596.55;;;21.67;51.79
33286;BME280;19656;50.096;20.014;2022-08-26T23:23:04;98597.30;;;21.60;51.86
33286;BME280;19656;50.096;20.014;2022-08-26T23:28:07;98594.94;;;21.54;51.99
33286;BME280;19656;50.096;20.014;2022-08-26T23:33:11;98591.52;;;21.49;52.15
33286;BME280;19656;50.096;20.014;2022-08-26T23:38:14;98583.21;;;21.44;52.14
33286;BME280;19656;50.096;20.014;2022-08-26T23:43:17;98574.46;;;21.39;52.34
33286;BME280;19656;50.096;20.014;2022-08-26T23:48:20;98567.30;;;21.34;52.40
33286;BME280;19656;50.096;20.014;2022-08-26T23:53:23;98561.55;;;21.29;52.54
33286;BME280;19656;50.096;20.014;2022-08-26T23:58:26;98555.06;;;21.25;52.69
